Time;durP1;ratioP1;P1;durP2;ratioP2;P2;SDS_P1;SDS_P2;PMS_P1;PMS_P2;Temp;Humidity;BMP_temperature;BMP_pressure;BME280_temperature;BME280_humidity;BME280_pressure;Samples;Min_cycle;Max_cycle;Signal;HPM_P1;HPM_P2
2021/01/26 00:00:22;;;;;;;17.33;9.33;;;0.70;99.90;;;;;;5229647;28;20194;-73
2021/01/26 00:02:53;;;;;;;18.37;9.10;;;0.70;99.90;;;;;;5228826;28;20523;-71
2021/01/26 00:05:25;;;;;;;17.20;9.17;;;0.80;99.90;;;;;;5229396;28;20198;-72
2021/01/26 00:07:56;;;;;;;17.30;9.37;;;0.80;99.90;;;;;;5229507;28;20189;-73
2021/01/26 00:10:28;;;;;;;16.83;9.10;;;0.80;99.90;;;;;;5229462;28;20204;-72
2021/01/26 00:13:00;;;;;;;15.30;9.20;;;0.80;99.90;;;;;;5229711;28;20279;-72
2021/01/26 00:15:31;;;;;;;19.87;9.27;;;0.80;99.90;;;;;;5228950;28;20225;-72
2021/01/26 00:18:04;;;;;;;16.47;7.40;;;0.80;99.90;;;;;;5229557;28;20283;-72
2021/01/26 00:20:36;;;;;;;16.30;8.77;;;0.80;99.90;;;;;;5228116;28;20647;-73
2021/01/26 00:23:07;;;;;;;14.80;8.60;;;0.80;99.90;;;;;;5229084;28;20194;-72
2021/01/26 00:25:41;;;;;;;18.97;8.97;;;0.80;99.90;;;;;;5228920;28;20196;-71
2021/01/26 00:28:14;;;;;;;14.73;8.57;;;0.80;99.90;;;;;;5229204;28;20197;-73
2021/01/26 00:30:46;;;;;;;15.33;8.70;;;0.80;99.90;;;;;;5228839;28;20197;-72
2021/01/26 00:33:21;;;;;;;15.33;8.57;;;0.80;99.90;;;;;;5229299;28;20190;-71
2021/01/26 00:35:52;;;;;;;14.43;7.87;;;0.80;99.90;;;;;;5229008;28;20355;-71
2021/01/26 00:38:24;;;;;;;12.73;7.63;;;0.80;99.90;;;;;;5228588;28;20201;-72
2021/01/26 00:40:56;;;;;;;14.33;7.27;;;0.80;99.90;;;;;;5228722;28;20201;-72
2021/01/26 00:43:27;;;;;;;12.20;7.33;;;0.80;99.90;;;;;;5227689;28;20208;-72
2021/01/26 00:45:59;;;;;;;15.23;8.20;;;0.70;99.90;;;;;;5227521;28;20200;-72
2021/01/26 00:48:32;;;;;;;12.40;7.40;;;0.80;99.90;;;;;;5229230;28;20189;-71
2021/01/26 00:51:04;;;;;;;12.40;7.57;;;0.70;99.90;;;;;;5228649;28;20198;-72
2021/01/26 00:53:36;;;;;;;11.67;7.40;;;0.80;99.90;;;;;;5227686;28;20205;-72
2021/01/26 00:56:07;;;;;;;12.73;7.70;;;0.80;99.90;;;;;;5228681;28;20228;-72
2021/01/26 00:58:39;;;;;;;11.87;7.20;;;0.80;99.90;;;;;;5227182;28;20325;-71
2021/01/26 01:01:10;;;;;;;13.23;7.83;;;0.70;99.90;;;;;;5228768;28;20194;-71
2021/01/26 01:03:42;;;;;;;14.87;7.70;;;0.70;99.90;;;;;;5227713;28;20283;-72
2021/01/26 01:06:14;;;;;;;18.43;8.20;;;0.70;99.90;;;;;;5228498;28;20273;-72
2021/01/26 01:08:46;;;;;;;14.63;7.67;;;0.70;99.90;;;;;;5228374;28;20198;-71
2021/01/26 01:11:17;;;;;;;15.67;8.50;;;0.70;99.90;;;;;;5228429;28;20186;-71
2021/01/26 01:13:49;;;;;;;15.03;8.77;;;0.60;99.90;;;;;;5227938;28;20194;-71
2021/01/26 01:16:23;;;;;;;16.30;8.53;;;0.60;99.90;;;;;;5227835;28;20233;-71
2021/01/26 01:18:54;;;;;;;14.33;8.37;;;0.60;99.90;;;;;;5228456;28;20646;-71
2021/01/26 01:21:26;;;;;;;14.80;8.37;;;0.60;99.90;;;;;;5228228;28;20201;-70
2021/01/26 01:23:57;;;;;;;15.43;8.77;;;0.60;99.90;;;;;;5228407;28;20655;-72
2021/01/26 01:26:29;;;;;;;14.07;8.17;;;0.60;99.90;;;;;;5228052;28;20276;-73
2021/01/26 01:29:01;;;;;;;13.60;7.60;;;0.60;99.90;;;;;;5227938;28;20705;-72
2021/01/26 01:31:32;;;;;;;13.03;8.10;;;0.60;99.90;;;;;;5228123;28;20204;-70
2021/01/26 01:34:06;;;;;;;13.83;8.13;;;0.60;99.90;;;;;;5228972;28;20190;-72
2021/01/26 01:36:38;;;;;;;12.33;7.57;;;0.60;99.90;;;;;;5228853;28;20228;-73
2021/01/26 01:39:11;;;;;;;12.70;7.53;;;0.70;99.90;;;;;;5229485;28;20636;-71
2021/01/26 01:41:42;;;;;;;13.67;7.87;;;0.70;99.90;;;;;;5229995;28;20194;-72
2021/01/26 01:44:14;;;;;;;12.07;7.50;;;0.70;99.90;;;;;;5230517;28;20213;-73
2021/01/26 01:46:52;;;;;;;12.70;7.70;;;0.70;99.90;;;;;;5228963;28;20225;-73
2021/01/26 01:49:28;;;;;;;11.63;6.90;;;0.70;99.90;;;;;;5229738;28;20260;-71
2021/01/26 01:51:59;;;;;;;10.17;6.67;;;0.70;99.90;;;;;;5230469;28;20645;-72
2021/01/26 01:54:37;;;;;;;12.13;6.43;;;0.70;99.90;;;;;;5229319;28;20233;-72
2021/01/26 01:57:20;;;;;;;12.00;6.80;;;0.80;99.90;;;;;;5225590;28;20229;-71
2021/01/26 01:59:59;;;;;;;14.30;6.93;;;0.80;99.90;;;;;;5228198;28;20190;-73
2021/01/26 02:02:31;;;;;;;13.40;7.17;;;0.80;99.90;;;;;;5229091;28;20590;-73
2021/01/26 02:05:04;;;;;;;14.00;7.50;;;0.80;99.90;;;;;;5226864;28;20194;-72
2021/01/26 02:07:36;;;;;;;13.63;7.43;;;0.80;99.90;;;;;;5227670;28;20285;-72
2021/01/26 02:13:55;;;;;;;12.47;7.03;;;0.80;99.90;;;;;;5227589;28;20232;-73
2021/01/26 02:16:29;;;;;;;12.53;7.87;;;0.80;99.90;;;;;;5229886;28;20236;-72
2021/01/26 02:19:37;;;;;;;12.17;7.00;;;0.80;99.90;;;;;;5232008;28;20188;-72
2021/01/26 02:22:46;;;;;;;11.73;7.23;;;0.90;99.90;;;;;;5231359;28;20190;-72
2021/01/26 02:25:23;;;;;;;12.90;7.60;;;0.90;99.90;;;;;;5231529;28;20189;-73
2021/01/26 02:28:13;;;;;;;11.10;6.60;;;0.90;99.90;;;;;;5233422;28;20193;-72
2021/01/26 02:30:57;;;;;;;10.57;6.67;;;0.90;99.90;;;;;;5233094;28;20206;-73
2021/01/26 02:33:50;;;;;;;11.47;6.90;;;0.90;99.90;;;;;;5232846;28;20554;-74
2021/01/26 02:36:50;;;;;;;11.13;6.90;;;0.90;99.90;;;;;;5230629;28;20233;-72
2021/01/26 02:39:58;;;;;;;10.67;6.33;;;0.90;99.90;;;;;;5231167;28;20197;-72
2021/01/26 02:42:51;;;;;;;12.27;6.57;;;1.00;99.90;;;;;;5231451;28;20623;-72
2021/01/26 02:45:31;;;;;;;14.00;6.57;;;0.90;99.90;;;;;;5230081;28;20558;-72
2021/01/26 02:48:05;;;;;;;9.90;6.10;;;1.00;99.90;;;;;;5231171;28;20532;-72
2021/01/26 02:51:07;;;;;;;12.63;6.97;;;1.00;99.90;;;;;;5233100;28;20702;-72
2021/01/26 02:54:04;;;;;;;9.97;6.77;;;1.00;99.90;;;;;;5230827;28;20576;-72
2021/01/26 03:01:01;;;;;;;11.70;6.90;;;0.90;99.90;;;;;;5230837;28;20181;-71
2021/01/26 03:03:43;;;;;;;10.73;6.57;;;0.90;99.90;;;;;;5231279;28;20197;-73
2021/01/26 03:06:18;;;;;;;11.90;7.17;;;0.90;99.90;;;;;;5230568;28;20205;-73
2021/01/26 03:09:04;;;;;;;11.80;7.47;;;0.90;99.90;;;;;;5231082;28;20197;-71
2021/01/26 03:16:04;;;;;;;12.53;7.20;;;0.80;99.90;;;;;;5230694;28;20216;-73
2021/01/26 03:18:46;;;;;;;14.40;7.43;;;0.80;99.90;;;;;;5231142;28;20598;-71
2021/01/26 03:21:20;;;;;;;12.37;7.10;;;0.80;99.90;;;;;;5231163;28;20194;-72
2021/01/26 03:24:03;;;;;;;12.43;7.20;;;0.80;99.90;;;;;;5231647;28;20200;-73
2021/01/26 03:26:35;;;;;;;15.60;6.60;;;0.80;99.90;;;;;;5230367;28;20204;-72
2021/01/26 03:29:09;;;;;;;12.73;7.07;;;0.80;99.90;;;;;;5230505;28;20186;-71
2021/01/26 03:31:51;;;;;;;11.63;6.80;;;0.80;99.90;;;;;;5230540;28;20194;-71
2021/01/26 03:34:23;;;;;;;9.80;6.23;;;0.70;99.90;;;;;;5230481;28;20530;-73
2021/01/26 03:36:56;;;;;;;10.97;6.67;;;0.70;99.90;;;;;;5231169;28;20323;-72
2021/01/26 03:39:27;;;;;;;9.67;6.07;;;0.70;99.90;;;;;;5232199;28;20292;-72
2021/01/26 03:42:01;;;;;;;10.60;5.83;;;0.60;99.90;;;;;;5230468;28;20197;-74
2021/01/26 03:44:33;;;;;;;10.87;6.00;;;0.60;99.90;;;;;;5231842;28;20536;-72
2021/01/26 03:47:33;;;;;;;10.03;5.80;;;0.60;99.90;;;;;;5231620;28;20318;-73
2021/01/26 03:50:22;;;;;;;8.93;5.97;;;0.60;99.90;;;;;;5230793;28;20204;-71
2021/01/26 03:53:12;;;;;;;9.73;5.33;;;0.60;99.90;;;;;;5231776;28;20648;-72
2021/01/26 03:59:48;;;;;;;9.60;5.70;;;0.60;99.90;;;;;;5229663;28;20302;-74
2021/01/26 04:02:41;;;;;;;7.90;5.40;;;0.60;99.90;;;;;;5229554;28;20194;-71
2021/01/26 04:05:37;;;;;;;9.23;5.63;;;0.60;99.90;;;;;;5229667;28;20296;-73
2021/01/26 04:08:18;;;;;;;8.23;5.43;;;0.60;99.90;;;;;;5232833;28;20193;-71
2021/01/26 04:14:40;;;;;;;8.43;5.70;;;0.60;99.90;;;;;;5229394;28;20205;-71
2021/01/26 04:17:30;;;;;;;8.50;5.63;;;0.70;99.90;;;;;;5230903;28;20207;-75
2021/01/26 04:20:08;;;;;;;8.50;6.13;;;0.70;99.90;;;;;;5230369;28;20221;-71
2021/01/26 04:22:40;;;;;;;8.97;5.97;;;0.70;99.90;;;;;;5229210;28;20666;-73
2021/01/26 04:29:44;;;;;;;10.20;5.23;;;0.70;99.90;;;;;;5206760;28;20264;-72
2021/01/26 04:32:17;;;;;;;8.73;5.90;;;0.70;99.90;;;;;;5206134;28;20213;-71
2021/01/26 04:34:49;;;;;;;11.63;6.07;;;0.60;99.90;;;;;;5206969;28;20233;-73
2021/01/26 04:37:20;;;;;;;10.50;6.27;;;0.70;99.90;;;;;;5206857;28;20292;-74
2021/01/26 04:39:52;;;;;;;11.83;6.60;;;0.70;99.90;;;;;;5205728;28;20206;-73
2021/01/26 04:46:36;;;;;;;12.60;6.63;;;0.60;99.90;;;;;;5206773;28;20209;-72
2021/01/26 04:49:10;;;;;;;11.77;6.67;;;0.60;99.90;;;;;;5207398;28;20197;-73
2021/01/26 04:51:57;;;;;;;11.70;6.80;;;0.60;99.90;;;;;;5206970;28;20314;-74
2021/01/26 04:54:29;;;;;;;14.90;7.73;;;0.60;99.90;;;;;;5191229;28;20207;-74
2021/01/26 04:57:03;;;;;;;12.37;7.67;;;0.60;99.90;;;;;;5207145;28;20289;-70
2021/01/26 04:59:44;;;;;;;13.60;7.57;;;0.70;99.90;;;;;;5206358;28;20232;-73
2021/01/26 05:02:47;;;;;;;14.47;7.60;;;0.70;99.90;;;;;;5207123;28;20568;-73
2021/01/26 05:05:22;;;;;;;12.30;7.30;;;0.70;99.90;;;;;;5146925;28;20294;-72
2021/01/26 05:07:59;;;;;;;12.17;7.17;;;0.70;99.90;;;;;;5145124;28;20192;-74
2021/01/26 05:14:24;;;;;;;12.53;7.20;;;0.80;99.90;;;;;;5144882;28;20232;-72
2021/01/26 05:17:01;;;;;;;12.00;7.73;;;0.80;99.90;;;;;;5144746;28;20670;-73
2021/01/26 05:19:54;;;;;;;12.90;7.77;;;0.80;99.90;;;;;;5144799;28;20200;-74
2021/01/26 05:22:36;;;;;;;12.43;7.20;;;0.70;99.90;;;;;;5144728;28;20208;-73
2021/01/26 05:25:14;;;;;;;11.60;7.50;;;0.60;99.90;;;;;;5144645;28;20197;-72
2021/01/26 05:31:44;;;;;;;11.57;6.67;;;0.50;99.90;;;;;;5145163;28;20176;-71
2021/01/26 05:34:17;;;;;;;11.40;7.17;;;0.50;99.90;;;;;;5145886;28;20627;-70
2021/01/26 05:36:49;;;;;;;14.57;8.10;;;0.50;99.90;;;;;;5146142;28;20211;-71
2021/01/26 05:39:30;;;;;;;14.73;7.83;;;0.50;99.90;;;;;;5146578;28;20193;-70
2021/01/26 05:42:02;;;;;;;13.30;7.67;;;0.50;99.90;;;;;;5174360;28;20206;-72
2021/01/26 05:44:36;;;;;;;14.63;8.17;;;0.60;99.90;;;;;;5208130;28;20652;-71
2021/01/26 05:47:30;;;;;;;14.03;7.97;;;0.60;99.90;;;;;;5207658;28;20201;-73
2021/01/26 05:50:03;;;;;;;16.13;12.15;;;0.70;99.90;;;;;;5205872;28;20791;-72
2021/01/26 05:52:38;;;;;;;15.63;9.30;;;0.70;99.90;;;;;;5207788;28;20198;-75
2021/01/26 05:55:36;;;;;;;16.47;10.03;;;0.70;99.90;;;;;;5207542;28;20221;-73
2021/01/26 05:58:13;;;;;;;14.33;9.03;;;0.70;99.90;;;;;;5206743;28;20206;-73
2021/01/26 06:00:56;;;;;;;14.83;8.70;;;0.70;99.90;;;;;;5207394;28;20194;-74
2021/01/26 06:03:29;;;;;;;15.30;8.60;;;0.70;99.90;;;;;;5207709;28;20302;-72
2021/01/26 06:06:17;;;;;;;18.00;9.57;;;0.70;99.90;;;;;;5207043;28;20194;-70
2021/01/26 06:08:55;;;;;;;16.77;8.90;;;0.70;99.90;;;;;;5191083;28;20194;-72
2021/01/26 06:15:13;;;;;;;17.37;8.80;;;0.80;99.90;;;;;;5206829;28;20570;-72
2021/01/26 06:17:44;;;;;;;14.73;9.40;;;0.80;99.90;;;;;;5207042;28;20197;-71
2021/01/26 06:20:24;;;;;;;17.37;9.13;;;0.80;99.90;;;;;;5207395;28;20212;-77
2021/01/26 06:23:15;;;;;;;17.50;9.13;;;0.80;99.90;;;;;;5207157;28;20248;-71
2021/01/26 06:25:52;;;;;;;15.10;9.33;;;0.90;99.90;;;;;;5206046;28;20558;-72
2021/01/26 06:32:19;;;;;;;21.23;9.97;;;0.90;99.90;;;;;;5205294;28;20178;-69
2021/01/26 06:34:56;;;;;;;20.30;10.60;;;0.90;99.90;;;;;;5204494;28;20268;-70
2021/01/26 06:38:04;;;;;;;18.60;9.47;;;0.90;99.90;;;;;;5205025;28;20783;-76
2021/01/26 06:40:54;;;;;;;19.80;10.00;;;0.90;99.90;;;;;;5205567;28;20224;-77
2021/01/26 06:43:48;;;;;;;16.47;9.87;;;0.80;99.90;;;;;;5205801;28;20202;-80
2021/01/26 06:46:41;;;;;;;17.27;9.47;;;0.80;99.90;;;;;;5207219;28;20213;-77
2021/01/26 06:49:33;;;;;;;16.70;9.53;;;0.70;99.90;;;;;;5209938;28;20198;-79
2021/01/26 06:52:22;;;;;;;17.70;9.27;;;0.70;99.90;;;;;;5216275;28;20277;-77
2021/01/26 06:55:15;;;;;;;19.67;10.37;;;0.70;99.90;;;;;;5207841;28;20329;-79
2021/01/26 06:58:08;;;;;;;18.90;10.50;;;0.70;99.90;;;;;;5217090;28;20209;-74
2021/01/26 07:00:54;;;;;;;18.20;10.03;;;0.80;99.90;;;;;;5227880;28;20577;-81
2021/01/26 07:03:44;;;;;;;20.27;10.40;;;0.80;99.90;;;;;;5231193;28;20197;-76
2021/01/26 07:06:28;;;;;;;19.20;9.93;;;0.80;99.90;;;;;;5231211;28;20200;-79
2021/01/26 07:09:21;;;;;;;23.77;12.07;;;0.80;99.90;;;;;;5232511;28;20205;-81
2021/01/26 07:16:37;;;;;;;20.97;11.60;;;0.80;99.90;;;;;;5235537;28;20240;-83
2021/01/26 07:19:36;;;;;;;23.17;11.43;;;0.80;99.90;;;;;;5210581;28;20210;-80
2021/01/26 07:22:36;;;;;;;19.50;10.27;;;0.80;99.90;;;;;;5210195;28;20628;-83
2021/01/26 07:25:32;;;;;;;19.27;10.40;;;0.80;99.90;;;;;;5209987;28;20201;-83
2021/01/26 07:28:29;;;;;;;20.50;10.47;;;0.80;99.90;;;;;;5208922;28;20195;-74
2021/01/26 07:31:04;;;;;;;20.20;11.13;;;0.80;99.90;;;;;;5207386;28;20213;-77
2021/01/26 07:33:46;;;;;;;23.63;11.13;;;0.80;99.90;;;;;;5210865;28;20197;-76
2021/01/26 07:36:32;;;;;;;19.83;10.27;;;0.80;99.90;;;;;;5197555;28;20614;-77
2021/01/26 07:39:18;;;;;;;17.40;9.77;;;0.90;99.90;;;;;;5203088;28;20649;-74
2021/01/26 07:45:45;;;;;;;23.60;11.27;;;0.90;99.90;;;;;;5206420;28;20273;-77
2021/01/26 07:48:59;;;;;;;21.53;11.20;;;1.00;99.90;;;;;;5208367;28;20205;-77
2021/01/26 07:51:38;;;;;;;22.03;11.53;;;1.00;99.90;;;;;;5148855;28;20256;-76
2021/01/26 07:54:23;;;;;;;22.77;11.93;;;1.10;99.90;;;;;;5146338;28;20196;-75
2021/01/26 07:56:59;;;;;;;20.10;10.73;;;1.10;99.90;;;;;;5167501;28;20292;-75
2021/01/26 07:59:38;;;;;;;19.97;10.87;;;1.20;99.90;;;;;;5167197;28;20317;-77
2021/01/26 08:02:29;;;;;;;23.57;10.90;;;1.20;99.90;;;;;;5166681;28;20248;-74
2021/01/26 08:05:11;;;;;;;18.57;10.47;;;1.20;99.90;;;;;;5164448;28;20207;-76
2021/01/26 08:07:44;;;;;;;19.80;10.23;;;1.30;99.90;;;;;;5166386;28;20211;-76
2021/01/26 08:10:19;;;;;;;20.47;10.83;;;1.30;99.90;;;;;;5164767;28;20196;-76
2021/01/26 08:12:51;;;;;;;18.47;10.13;;;1.40;99.90;;;;;;5165375;28;20191;-78
2021/01/26 08:15:30;;;;;;;16.33;9.77;;;1.30;99.90;;;;;;5164111;28;20233;-75
2021/01/26 08:18:25;;;;;;;19.57;11.13;;;1.40;99.90;;;;;;5166788;28;20196;-75
2021/01/26 08:20:57;;;;;;;19.70;10.80;;;1.40;99.90;;;;;;5166257;28;20218;-75
2021/01/26 08:23:31;;;;;;;20.97;11.83;;;1.30;99.90;;;;;;5150651;28;20192;-77
2021/01/26 08:26:17;;;;;;;21.80;12.23;;;1.30;99.90;;;;;;5166543;28;20282;-75
2021/01/26 08:28:48;;;;;;;25.30;12.87;;;1.30;99.90;;;;;;5221987;28;20206;-76
2021/01/26 08:31:26;;;;;;;25.37;13.47;;;1.30;99.90;;;;;;5234092;28;20339;-77
2021/01/26 08:34:20;;;;;;;22.77;12.40;;;1.30;99.90;;;;;;5229122;28;20186;-74
2021/01/26 08:37:12;;;;;;;22.00;11.67;;;1.30;99.90;;;;;;5228969;28;20226;-75
2021/01/26 08:39:50;;;;;;;25.93;12.23;;;1.30;99.90;;;;;;5225265;28;20213;-74
2021/01/26 08:46:36;;;;;;;29.57;14.10;;;1.30;99.90;;;;;;5228416;28;20526;-74
2021/01/26 08:49:19;;;;;;;27.33;14.57;;;1.20;99.90;;;;;;5228905;28;20200;-76
2021/01/26 08:51:52;;;;;;;30.73;14.57;;;1.30;99.90;;;;;;5228013;28;20201;-71
2021/01/26 08:54:42;;;;;;;33.53;14.73;;;1.30;99.90;;;;;;5228608;28;20289;-75
2021/01/26 08:57:27;;;;;;;28.00;14.43;;;1.30;99.90;;;;;;5225902;28;20208;-77
2021/01/26 09:00:27;;;;;;;32.17;13.07;;;1.40;99.90;;;;;;5228601;28;20256;-72
2021/01/26 09:03:27;;;;;;;26.90;14.20;;;1.40;99.90;;;;;;5226066;28;20679;-73
2021/01/26 09:06:05;;;;;;;22.17;11.77;;;1.50;99.90;;;;;;5229493;28;20190;-73
2021/01/26 09:08:40;;;;;;;23.03;11.70;;;1.50;99.90;;;;;;5226936;28;20193;-69
2021/01/26 09:11:17;;;;;;;24.93;11.97;;;1.50;99.90;;;;;;5228414;28;20189;-68
2021/01/26 09:13:50;;;;;;;24.23;12.50;;;1.50;99.90;;;;;;5229767;28;20611;-68
2021/01/26 09:16:25;;;;;;;20.50;11.80;;;1.60;99.90;;;;;;5228120;28;20213;-71
2021/01/26 09:19:23;;;;;;;22.00;11.20;;;1.70;99.90;;;;;;5229299;28;20199;-71
2021/01/26 09:21:55;;;;;;;21.03;11.00;;;1.90;99.90;;;;;;5228110;28;20859;-73
2021/01/26 09:24:27;;;;;;;15.57;8.57;;;1.90;99.90;;;;;;5228914;28;20236;-74
2021/01/26 09:31:00;;;;;;;18.87;10.00;;;1.90;99.90;;;;;;5228273;28;20272;-72
2021/01/26 09:33:33;;;;;;;25.00;11.60;;;1.90;99.90;;;;;;5228144;28;20243;-74
2021/01/26 09:36:08;;;;;;;18.17;10.60;;;1.90;99.90;;;;;;5227966;28;20638;-74
2021/01/26 09:38:44;;;;;;;14.97;8.93;;;1.90;99.90;;;;;;5228119;28;20624;-74
2021/01/26 09:41:25;;;;;;;19.23;10.53;;;1.90;99.90;;;;;;5228307;28;20193;-74
2021/01/26 09:47:43;;;;;;;22.07;11.93;;;2.00;99.90;;;;;;5228165;28;20173;-73
2021/01/26 09:50:16;;;;;;;25.00;12.63;;;2.10;99.90;;;;;;5228515;28;20538;-71
2021/01/26 09:52:47;;;;;;;26.67;12.60;;;2.10;99.90;;;;;;5227816;28;20587;-77
2021/01/26 09:55:19;;;;;;;21.93;11.30;;;2.20;99.90;;;;;;5227693;28;20213;-74
2021/01/26 09:57:54;;;;;;;20.80;11.43;;;2.30;99.90;;;;;;5227615;28;20280;-73
2021/01/26 10:00:27;;;;;;;19.37;11.33;;;2.30;99.90;;;;;;5229762;28;20232;-73
2021/01/26 10:03:01;;;;;;;21.40;11.03;;;2.40;99.90;;;;;;5233552;28;20208;-75
2021/01/26 10:05:33;;;;;;;21.90;11.10;;;2.40;99.90;;;;;;5229399;28;20224;-75
2021/01/26 10:08:25;;;;;;;19.73;10.60;;;2.40;99.90;;;;;;5229462;28;20280;-77
2021/01/26 10:11:10;;;;;;;19.80;9.90;;;2.50;99.90;;;;;;5228786;28;20198;-74
2021/01/26 10:13:42;;;;;;;13.33;8.00;;;2.40;99.90;;;;;;5229610;28;20194;-74
2021/01/26 10:16:34;;;;;;;15.13;7.97;;;2.40;99.90;;;;;;5228751;28;20267;-75
2021/01/26 10:19:13;;;;;;;14.40;8.33;;;2.30;99.90;;;;;;5227273;28;20277;-71
2021/01/26 10:21:44;;;;;;;12.97;7.23;;;2.30;99.90;;;;;;5228644;28;20194;-75
2021/01/26 10:24:33;;;;;;;13.27;6.77;;;2.20;99.90;;;;;;5227274;28;20194;-75
2021/01/26 10:30:54;;;;;;;12.57;6.80;;;2.10;99.90;;;;;;5145782;28;20474;-69
2021/01/26 10:33:47;;;;;;;12.07;7.10;;;1.90;99.90;;;;;;5102028;28;20587;-69
2021/01/26 10:36:33;;;;;;;14.40;8.03;;;2.00;99.90;;;;;;5055308;28;20217;-68
2021/01/26 10:39:29;;;;;;;12.93;7.47;;;2.00;99.90;;;;;;5093019;28;20229;-72
2021/01/26 10:46:34;;;;;;;12.37;7.13;;;2.00;99.90;;;;;;5230715;28;20565;-77
2021/01/26 10:49:23;;;;;;;11.80;8.10;;;2.00;99.90;;;;;;5231004;28;20425;-81
2021/01/26 10:51:54;;;;;;;12.23;5.97;;;2.20;99.90;;;;;;5233005;28;20186;-77
2021/01/26 10:54:26;;;;;;;12.23;6.07;;;2.20;99.90;;;;;;5233657;28;20209;-78
2021/01/26 10:56:58;;;;;;;10.20;6.63;;;2.20;99.90;;;;;;5230497;28;20572;-74
2021/01/26 11:04:06;;;;;;;13.73;8.53;;;2.20;99.90;;;;;;5228233;28;20409;-78
2021/01/26 11:06:42;;;;;;;10.77;6.37;;;2.30;99.90;;;;;;5229917;28;20194;-78
2021/01/26 11:09:15;;;;;;;11.83;6.90;;;2.30;99.90;;;;;;5231542;28;20492;-75
2021/01/26 11:11:47;;;;;;;12.60;7.73;;;2.30;99.90;;;;;;5231500;28;20551;-74
2021/01/26 11:18:14;;;;;;;14.00;8.10;;;2.40;99.90;;;;;;5232405;28;20208;-75
2021/01/26 11:20:46;;;;;;;14.37;8.23;;;2.40;99.90;;;;;;5231798;28;20293;-75
2021/01/26 11:23:18;;;;;;;13.17;6.30;;;2.40;99.90;;;;;;5231355;28;20193;-73
2021/01/26 11:25:51;;;;;;;11.10;6.87;;;2.30;99.90;;;;;;5231371;28;20650;-76
2021/01/26 11:28:23;;;;;;;12.30;6.00;;;2.20;99.90;;;;;;5228393;28;20560;-80
2021/01/26 11:30:54;;;;;;;9.77;6.30;;;2.20;99.90;;;;;;5231711;28;20190;-75
2021/01/26 11:33:27;;;;;;;10.03;6.73;;;2.20;99.90;;;;;;5231603;28;20611;-76
2021/01/26 11:35:59;;;;;;;15.47;7.50;;;2.20;99.90;;;;;;5230710;28;20328;-76
2021/01/26 11:38:30;;;;;;;13.73;7.70;;;2.20;99.90;;;;;;5231108;28;20219;-76
2021/01/26 11:41:04;;;;;;;12.97;7.30;;;2.10;99.90;;;;;;5231258;28;20607;-77
2021/01/26 11:43:36;;;;;;;11.93;7.87;;;2.10;99.90;;;;;;5230017;28;20196;-76
2021/01/26 11:46:07;;;;;;;12.50;7.23;;;2.10;99.90;;;;;;5230065;28;20285;-80
2021/01/26 11:48:39;;;;;;;14.00;7.87;;;2.10;99.90;;;;;;5230624;28;20252;-74
2021/01/26 11:51:11;;;;;;;14.27;7.37;;;2.10;99.90;;;;;;5229411;28;20232;-73
2021/01/26 11:53:42;;;;;;;11.77;6.30;;;2.10;99.90;;;;;;5229598;28;20190;-75
2021/01/26 11:56:14;;;;;;;9.00;5.90;;;2.10;99.90;;;;;;5229235;28;20229;-75
2021/01/26 11:58:46;;;;;;;10.60;5.17;;;2.10;99.90;;;;;;5229852;28;20201;-75
2021/01/26 12:01:17;;;;;;;9.03;4.57;;;2.00;99.90;;;;;;5229466;28;20206;-76
2021/01/26 12:03:49;;;;;;;9.73;5.10;;;1.90;99.90;;;;;;5229315;28;20229;-71
2021/01/26 12:06:22;;;;;;;17.50;8.97;;;1.90;99.90;;;;;;5230473;28;20236;-78
2021/01/26 12:08:54;;;;;;;14.07;5.70;;;1.80;99.90;;;;;;5231130;28;20649;-77
2021/01/26 12:11:26;;;;;;;11.23;5.50;;;1.80;99.90;;;;;;5229934;28;20201;-79
2021/01/26 12:13:58;;;;;;;9.20;4.60;;;1.70;99.90;;;;;;5230103;28;20558;-79
2021/01/26 12:16:29;;;;;;;8.07;3.80;;;1.70;99.90;;;;;;5230023;28;20217;-74
2021/01/26 12:19:02;;;;;;;8.77;4.70;;;1.80;99.90;;;;;;5229605;28;20213;-79
2021/01/26 12:21:34;;;;;;;5.83;2.90;;;1.80;99.90;;;;;;5230831;28;20288;-78
2021/01/26 12:24:06;;;;;;;4.90;2.27;;;1.80;99.90;;;;;;5229529;28;20280;-79
2021/01/26 12:26:38;;;;;;;4.63;2.73;;;1.80;99.90;;;;;;5234992;28;20201;-78
2021/01/26 12:29:09;;;;;;;7.80;2.80;;;1.80;99.90;;;;;;5229618;28;20194;-77
2021/01/26 12:31:44;;;;;;;8.73;4.17;;;1.70;99.90;;;;;;5229383;28;20204;-76
2021/01/26 12:34:16;;;;;;;10.30;4.23;;;1.70;99.90;;;;;;5229224;28;20283;-74
2021/01/26 12:36:49;;;;;;;8.60;4.53;;;1.70;99.90;;;;;;5231093;28;20671;-77
2021/01/26 12:39:21;;;;;;;8.57;4.00;;;1.80;99.90;;;;;;5230396;28;20281;-71
2021/01/26 12:41:53;;;;;;;7.33;4.03;;;1.70;99.90;;;;;;5228912;28;20194;-72
2021/01/26 12:44:24;;;;;;;7.17;4.10;;;1.70;99.90;;;;;;5220843;28;20212;-78
2021/01/26 12:46:56;;;;;;;6.67;3.47;;;1.60;99.90;;;;;;5208066;28;20194;-77
2021/01/26 12:49:28;;;;;;;6.97;4.00;;;1.60;99.90;;;;;;5227357;28;20249;-79
2021/01/26 12:51:59;;;;;;;7.47;4.17;;;1.60;99.90;;;;;;5229897;28;20755;-80
2021/01/26 12:54:31;;;;;;;7.40;4.70;;;1.50;99.90;;;;;;5230396;28;20204;-78
2021/01/26 12:57:03;;;;;;;9.10;4.67;;;1.50;99.90;;;;;;5227609;28;20209;-78
2021/01/26 12:59:35;;;;;;;9.73;4.70;;;1.60;99.90;;;;;;5232841;28;20192;-81
2021/01/26 13:02:06;;;;;;;10.53;4.67;;;1.60;99.90;;;;;;5228867;28;20243;-80
2021/01/26 13:04:38;;;;;;;7.90;3.87;;;1.70;99.90;;;;;;5229039;28;20197;-76
2021/01/26 13:07:09;;;;;;;5.77;3.00;;;1.70;99.90;;;;;;5229602;28;20197;-75
2021/01/26 13:09:41;;;;;;;7.63;3.40;;;1.70;99.90;;;;;;5230076;28;20209;-83
2021/01/26 13:12:12;;;;;;;8.20;3.73;;;1.70;99.90;;;;;;5230576;28;20190;-80
2021/01/26 13:14:44;;;;;;;11.43;4.37;;;1.70;99.90;;;;;;5230490;28;20197;-81
2021/01/26 13:17:16;;;;;;;9.70;4.67;;;1.80;99.90;;;;;;5231334;28;20217;-78
2021/01/26 13:19:47;;;;;;;10.33;5.03;;;1.80;99.90;;;;;;5229122;28;20208;-80
2021/01/26 13:22:19;;;;;;;8.93;4.13;;;1.80;99.90;;;;;;5229790;28;20196;-76
2021/01/26 13:24:51;;;;;;;11.27;4.77;;;1.80;99.90;;;;;;5230472;28;20197;-78
2021/01/26 13:27:23;;;;;;;11.50;4.80;;;1.80;99.90;;;;;;5230800;28;20216;-78
2021/01/26 13:29:54;;;;;;;10.43;5.50;;;1.80;99.90;;;;;;5230156;28;20284;-76
2021/01/26 13:32:26;;;;;;;10.40;4.83;;;1.80;99.90;;;;;;5232199;28;20220;-80
2021/01/26 13:34:58;;;;;;;10.67;4.60;;;1.80;99.90;;;;;;5229988;28;20205;-79
2021/01/26 13:37:30;;;;;;;9.67;4.10;;;1.70;99.90;;;;;;5231020;28;20223;-81
2021/01/26 13:40:02;;;;;;;8.70;4.53;;;1.70;99.90;;;;;;5229763;28;20204;-80
2021/01/26 13:42:34;;;;;;;9.17;3.70;;;1.70;99.90;;;;;;5230415;28;20194;-73
2021/01/26 13:45:07;;;;;;;8.80;4.03;;;1.80;99.90;;;;;;5230440;28;20217;-73
2021/01/26 13:47:41;;;;;;;8.63;3.80;;;1.70;99.90;;;;;;5230058;28;20227;-70
2021/01/26 13:50:15;;;;;;;9.20;4.33;;;1.70;99.90;;;;;;5230866;28;20193;-76
2021/01/26 13:52:47;;;;;;;11.13;5.00;;;1.70;99.90;;;;;;5229679;28;20198;-74
2021/01/26 13:55:21;;;;;;;9.37;4.60;;;1.60;99.90;;;;;;5228372;28;20196;-67
2021/01/26 13:57:53;;;;;;;9.90;4.13;;;1.60;99.90;;;;;;5228308;28;20243;-68
2021/01/26 14:00:26;;;;;;;9.50;4.40;;;1.50;99.90;;;;;;5227941;28;20200;-68
2021/01/26 14:03:00;;;;;;;9.60;4.10;;;1.50;99.90;;;;;;5228227;28;20234;-72
2021/01/26 14:05:34;;;;;;;9.23;4.53;;;1.40;99.90;;;;;;5229224;28;20196;-69
2021/01/26 14:08:06;;;;;;;10.13;3.77;;;1.40;99.90;;;;;;5228270;28;20193;-67
2021/01/26 14:10:39;;;;;;;8.70;4.23;;;1.30;99.90;;;;;;5228933;28;20297;-71
2021/01/26 14:13:10;;;;;;;9.03;4.67;;;1.30;99.90;;;;;;5232081;28;20217;-76
2021/01/26 14:15:42;;;;;;;6.97;3.40;;;1.30;99.90;;;;;;5233630;28;20232;-71
2021/01/26 14:18:13;;;;;;;5.47;2.90;;;1.20;99.90;;;;;;5235092;28;20293;-70
2021/01/26 14:20:45;;;;;;;5.60;3.20;;;1.20;99.90;;;;;;5232395;28;20194;-75
2021/01/26 14:23:17;;;;;;;5.77;2.53;;;1.10;99.90;;;;;;5232811;28;20197;-72
2021/01/26 14:25:49;;;;;;;6.27;2.63;;;1.10;99.90;;;;;;5231043;28;20196;-67
2021/01/26 14:28:20;;;;;;;6.40;3.80;;;1.00;99.90;;;;;;5232128;28;20197;-69
2021/01/26 14:30:52;;;;;;;7.17;2.80;;;1.00;99.90;;;;;;5233022;28;20718;-74
2021/01/26 14:33:24;;;;;;;5.40;2.27;;;1.00;99.90;;;;;;5238347;28;20197;-79
2021/01/26 14:35:56;;;;;;;5.67;3.07;;;1.00;99.90;;;;;;5239687;28;20605;-73
2021/01/26 14:38:28;;;;;;;4.30;2.70;;;1.00;99.90;;;;;;5239238;28;20273;-72
2021/01/26 14:40:59;;;;;;;4.63;2.47;;;1.00;99.90;;;;;;5237584;28;20240;-68
2021/01/26 14:43:32;;;;;;;4.53;2.70;;;0.90;99.90;;;;;;5241412;28;20710;-73
2021/01/26 14:46:07;;;;;;;4.87;3.10;;;0.90;99.90;;;;;;5240123;28;20229;-69
2021/01/26 14:48:39;;;;;;;8.73;3.60;;;0.90;99.90;;;;;;5237489;28;20194;-76
2021/01/26 14:51:11;;;;;;;5.03;3.07;;;0.90;99.90;;;;;;5237064;28;20202;-81
2021/01/26 14:53:46;;;;;;;7.87;3.60;;;0.90;99.90;;;;;;5236850;28;20197;-70
2021/01/26 14:56:21;;;;;;;8.10;3.93;;;0.90;99.90;;;;;;5234454;28;20725;-71
2021/01/26 14:58:54;;;;;;;7.67;3.83;;;0.90;99.90;;;;;;5235479;28;20197;-73
2021/01/26 15:01:26;;;;;;;10.20;4.00;;;0.90;99.90;;;;;;5236788;28;20189;-79